Terminal Aerodrome Forecast
Issued by NWS

Home | Current Version | Previous Version | Text Only | Print | Product List | Glossary On
Versions: 1 2 3 4 5 6 7 8 9 10 11 12 13 14
000
FTUS43 KDLH 011120
TAFBRD
TAF
KBRD 011120Z 0112/0212 28003KT P6SM SKC
     FM011700 27008KT P6SM SCT100
     FM012000 24005KT P6SM BKN100
     FM020000 VRB03KT P6SM VCTS SCT050CB BKN150
     FM020500 VRB03KT P6SM FEW010 SCT100=

USA.gov is the U.S. government's official web portal to all federal, state and local government web resources and services.